sensor_id;sensor_type;location;lat;lon;timestamp;pressure;altitude;pressure_sealevel;temperature;humidity
65897;BME280;52677;50.898;10.854;2023-05-03T00:01:32;99623.56;;;3.99;100.00
65897;BME280;52677;50.898;10.854;2023-05-03T00:03:32;99616.88;;;3.91;100.00
65897;BME280;52677;50.898;10.854;2023-05-03T00:05:32;99611.91;;;3.80;100.00
65897;BME280;52677;50.898;10.854;2023-05-03T00:07:33;99610.41;;;3.74;100.00
65897;BME280;52677;50.898;10.854;2023-05-03T00:09:33;99605.84;;;3.69;100.00
65897;BME280;52677;50.898;10.854;2023-05-03T00:11:35;99610.50;;;3.69;100.00
65897;BME280;52677;50.898;10.854;2023-05-03T00:13:35;99602.91;;;3.65;100.00
65897;BME280;52677;50.898;10.854;2023-05-03T00:15:36;99606.25;;;3.62;100.00
65897;BME280;52677;50.898;10.854;2023-05-03T00:17:36;99599.97;;;3.62;100.00
65897;BME280;52677;50.898;10.854;2023-05-03T00:19:37;99597.84;;;3.59;100.00
65897;BME280;52677;50.898;10.854;2023-05-03T00:21:38;99598.31;;;3.47;100.00
65897;BME280;52677;50.898;10.854;2023-05-03T00:23:39;99597.72;;;3.36;100.00
65897;BME280;52677;50.898;10.854;2023-05-03T00:25:39;99598.13;;;3.30;100.00
65897;BME280;52677;50.898;10.854;2023-05-03T00:27:39;99604.59;;;3.20;100.00
65897;BME280;52677;50.898;10.854;2023-05-03T00:29:39;99606.09;;;3.13;100.00
65897;BME280;52677;50.898;10.854;2023-05-03T00:31:42;99593.34;;;3.08;100.00
65897;BME280;52677;50.898;10.854;2023-05-03T00:33:42;99606.59;;;3.01;100.00
65897;BME280;52677;50.898;10.854;2023-05-03T00:35:43;99597.34;;;2.97;100.00
65897;BME280;52677;50.898;10.854;2023-05-03T00:37:43;99602.44;;;2.90;100.00
65897;BME280;52677;50.898;10.854;2023-05-03T00:39:44;99597.34;;;2.83;100.00
65897;BME280;52677;50.898;10.854;2023-05-03T00:41:44;99583.44;;;2.79;100.00
65897;BME280;52677;50.898;10.854;2023-05-03T00:43:44;99595.19;;;2.80;100.00
65897;BME280;52677;50.898;10.854;2023-05-03T00:45:45;99589.09;;;2.69;100.00
65897;BME280;52677;50.898;10.854;2023-05-03T00:47:46;99589.16;;;2.64;100.00
65897;BME280;52677;50.898;10.854;2023-05-03T00:49:47;99587.84;;;2.62;100.00
65897;BME280;52677;50.898;10.854;2023-05-03T00:51:48;99590.47;;;2.53;100.00
65897;BME280;52677;50.898;10.854;2023-05-03T00:53:50;99593.78;;;2.50;100.00
65897;BME280;52677;50.898;10.854;2023-05-03T00:55:51;99590.31;;;2.44;100.00
65897;BME280;52677;50.898;10.854;2023-05-03T00:57:52;99593.94;;;2.40;100.00
65897;BME280;52677;50.898;10.854;2023-05-03T00:59:52;99597.88;;;2.34;100.00
65897;BME280;52677;50.898;10.854;2023-05-03T01:01:53;99596.53;;;2.31;100.00
65897;BME280;52677;50.898;10.854;2023-05-03T01:03:53;99587.63;;;2.25;100.00
65897;BME280;52677;50.898;10.854;2023-05-03T01:06:05;99589.31;;;2.21;100.00
65897;BME280;52677;50.898;10.854;2023-05-03T01:11:01;99590.94;;;2.04;100.00
65897;BME280;52677;50.898;10.854;2023-05-03T01:13:34;99600.06;;;1.94;100.00
65897;BME280;52677;50.898;10.854;2023-05-03T01:15:48;99593.66;;;1.85;100.00
65897;BME280;52677;50.898;10.854;2023-05-03T01:17:58;99589.94;;;1.76;100.00
65897;BME280;52677;50.898;10.854;2023-05-03T01:20:06;99582.13;;;1.69;100.00
65897;BME280;52677;50.898;10.854;2023-05-03T01:22:35;99586.91;;;1.58;100.00
65897;BME280;52677;50.898;10.854;2023-05-03T01:24:38;99589.47;;;1.50;100.00
65897;BME280;52677;50.898;10.854;2023-05-03T01:26:40;99596.84;;;1.49;100.00
65897;BME280;52677;50.898;10.854;2023-05-03T01:28:41;99596.88;;;1.44;100.00
65897;BME280;52677;50.898;10.854;2023-05-03T01:30:42;99595.31;;;1.38;100.00
65897;BME280;52677;50.898;10.854;2023-05-03T01:35:03;99595.72;;;1.50;100.00
65897;BME280;52677;50.898;10.854;2023-05-03T01:37:08;99594.66;;;1.46;100.00
65897;BME280;52677;50.898;10.854;2023-05-03T01:39:21;99589.63;;;1.34;100.00
65897;BME280;52677;50.898;10.854;2023-05-03T01:41:23;99590.50;;;1.30;100.00
65897;BME280;52677;50.898;10.854;2023-05-03T01:43:26;99592.19;;;1.26;100.00
65897;BME280;52677;50.898;10.854;2023-05-03T01:45:30;99585.75;;;1.17;100.00
65897;BME280;52677;50.898;10.854;2023-05-03T01:47:30;99588.72;;;1.15;100.00
65897;BME280;52677;50.898;10.854;2023-05-03T01:49:31;99591.28;;;1.06;100.00
65897;BME280;52677;50.898;10.854;2023-05-03T01:51:32;99587.84;;;0.96;100.00
65897;BME280;52677;50.898;10.854;2023-05-03T01:53:32;99596.31;;;0.94;100.00
65897;BME280;52677;50.898;10.854;2023-05-03T01:55:32;99606.50;;;0.83;100.00
65897;BME280;52677;50.898;10.854;2023-05-03T01:57:33;99597.78;;;0.81;100.00
65897;BME280;52677;50.898;10.854;2023-05-03T01:59:33;99605.25;;;0.71;100.00
65897;BME280;52677;50.898;10.854;2023-05-03T02:01:33;99604.72;;;0.69;100.00
65897;BME280;52677;50.898;10.854;2023-05-03T02:03:34;99608.25;;;0.69;100.00
65897;BME280;52677;50.898;10.854;2023-05-03T02:05:34;99615.09;;;0.67;100.00
65897;BME280;52677;50.898;10.854;2023-05-03T02:07:34;99610.72;;;0.66;100.00
65897;BME280;52677;50.898;10.854;2023-05-03T02:09:34;99600.13;;;0.64;100.00
65897;BME280;52677;50.898;10.854;2023-05-03T02:11:35;99609.16;;;0.60;100.00
65897;BME280;52677;50.898;10.854;2023-05-03T02:13:36;99611.91;;;0.54;100.00
65897;BME280;52677;50.898;10.854;2023-05-03T02:15:37;99605.69;;;0.49;100.00
65897;BME280;52677;50.898;10.854;2023-05-03T02:17:38;99613.09;;;0.43;100.00
65897;BME280;52677;50.898;10.854;2023-05-03T02:19:38;99615.31;;;0.36;100.00
65897;BME280;52677;50.898;10.854;2023-05-03T02:21:38;99617.06;;;0.22;100.00
65897;BME280;52677;50.898;10.854;2023-05-03T02:23:39;99615.44;;;0.16;100.00
65897;BME280;52677;50.898;10.854;2023-05-03T02:25:40;99625.81;;;0.14;100.00
65897;BME280;52677;50.898;10.854;2023-05-03T02:27:40;99612.72;;;0.16;100.00
65897;BME280;52677;50.898;10.854;2023-05-03T02:29:41;99611.97;;;0.10;100.00
65897;BME280;52677;50.898;10.854;2023-05-03T02:31:41;99618.00;;;0.02;100.00
65897;BME280;52677;50.898;10.854;2023-05-03T02:33:41;99613.38;;;0.03;100.00
65897;BME280;52677;50.898;10.854;2023-05-03T02:35:42;99607.66;;;-0.01;100.00
65897;BME280;52677;50.898;10.854;2023-05-03T02:37:42;99616.63;;;-0.01;100.00
65897;BME280;52677;50.898;10.854;2023-05-03T02:39:42;99609.03;;;0.02;100.00
65897;BME280;52677;50.898;10.854;2023-05-03T02:41:43;99618.88;;;-0.08;100.00
65897;BME280;52677;50.898;10.854;2023-05-03T02:43:43;99615.34;;;-0.13;100.00
65897;BME280;52677;50.898;10.854;2023-05-03T02:45:43;99621.91;;;-0.14;100.00
65897;BME280;52677;50.898;10.854;2023-05-03T02:47:43;99630.88;;;-0.14;100.00
65897;BME280;52677;50.898;10.854;2023-05-03T02:49:44;99626.53;;;-0.20;100.00
65897;BME280;52677;50.898;10.854;2023-05-03T02:51:44;99630.34;;;-0.21;100.00
65897;BME280;52677;50.898;10.854;2023-05-03T02:53:45;99626.28;;;-0.23;100.00
65897;BME280;52677;50.898;10.854;2023-05-03T02:55:45;99634.47;;;-0.29;100.00
65897;BME280;52677;50.898;10.854;2023-05-03T02:57:45;99618.72;;;-0.32;100.00
65897;BME280;52677;50.898;10.854;2023-05-03T02:59:47;99620.63;;;-0.32;100.00
65897;BME280;52677;50.898;10.854;2023-05-03T03:01:48;99627.69;;;-0.31;100.00
65897;BME280;52677;50.898;10.854;2023-05-03T03:03:48;99630.41;;;-0.31;100.00
65897;BME280;52677;50.898;10.854;2023-05-03T03:05:49;99625.78;;;-0.31;100.00
65897;BME280;52677;50.898;10.854;2023-05-03T03:07:50;99626.28;;;-0.23;100.00
65897;BME280;52677;50.898;10.854;2023-05-03T03:09:50;99616.75;;;-0.21;100.00
65897;BME280;52677;50.898;10.854;2023-05-03T03:11:50;99624.91;;;-0.21;100.00
65897;BME280;52677;50.898;10.854;2023-05-03T03:13:51;99622.19;;;-0.21;100.00
65897;BME280;52677;50.898;10.854;2023-05-03T03:15:52;99626.28;;;-0.23;100.00
65897;BME280;52677;50.898;10.854;2023-05-03T03:17:52;99626.03;;;-0.27;100.00
65897;BME280;52677;50.898;10.854;2023-05-03T03:19:56;99623.00;;;-0.25;100.00
65897;BME280;52677;50.898;10.854;2023-05-03T03:21:57;99627.41;;;-0.30;100.00
65897;BME280;52677;50.898;10.854;2023-05-03T03:23:57;99633.94;;;-0.36;100.00
65897;BME280;52677;50.898;10.854;2023-05-03T03:25:58;99631.00;;;-0.44;100.00
65897;BME280;52677;50.898;10.854;2023-05-03T03:27:58;99621.50;;;-0.47;100.00
65897;BME280;52677;50.898;10.854;2023-05-03T03:29:59;99637.53;;;-0.50;100.00
65897;BME280;52677;50.898;10.854;2023-05-03T03:32:00;99632.13;;;-0.55;100.00
65897;BME280;52677;50.898;10.854;2023-05-03T03:34:00;99631.03;;;-0.60;100.00
65897;BME280;52677;50.898;10.854;2023-05-03T03:36:00;99627.53;;;-0.65;100.00
65897;BME280;52677;50.898;10.854;2023-05-03T03:38:01;99625.06;;;-0.67;100.00
65897;BME280;52677;50.898;10.854;2023-05-03T03:40:01;99628.63;;;-0.66;100.00
65897;BME280;52677;50.898;10.854;2023-05-03T03:42:01;99634.06;;;-0.66;100.00
65897;BME280;52677;50.898;10.854;2023-05-03T03:44:02;99642.22;;;-0.66;100.00
65897;BME280;52677;50.898;10.854;2023-05-03T03:46:02;99633.50;;;-0.68;100.00
65897;BME280;52677;50.898;10.854;2023-05-03T03:48:02;99636.50;;;-0.65;100.00
65897;BME280;52677;50.898;10.854;2023-05-03T03:50:03;99639.50;;;-0.66;100.00
65897;BME280;52677;50.898;10.854;2023-05-03T03:52:04;99646.81;;;-0.67;100.00
65897;BME280;52677;50.898;10.854;2023-05-03T03:54:05;99641.38;;;-0.67;100.00
65897;BME280;52677;50.898;10.854;2023-05-03T03:56:05;99647.66;;;-0.66;100.00
65897;BME280;52677;50.898;10.854;2023-05-03T03:58:07;99654.44;;;-0.64;100.00
65897;BME280;52677;50.898;10.854;2023-05-03T04:00:08;99651.16;;;-0.61;100.00
65897;BME280;52677;50.898;10.854;2023-05-03T04:02:09;99650.63;;;-0.58;100.00
65897;BME280;52677;50.898;10.854;2023-05-03T04:04:10;99655.75;;;-0.51;100.00
65897;BME280;52677;50.898;10.854;2023-05-03T04:06:10;99660.38;;;-0.46;100.00
65897;BME280;52677;50.898;10.854;2023-05-03T04:08:10;99666.88;;;-0.42;100.00
65897;BME280;52677;50.898;10.854;2023-05-03T04:10:10;99675.81;;;-0.37;100.00
65897;BME280;52677;50.898;10.854;2023-05-03T04:12:11;99673.91;;;-0.36;100.00
65897;BME280;52677;50.898;10.854;2023-05-03T04:14:11;99672.00;;;-0.36;100.00
65897;BME280;52677;50.898;10.854;2023-05-03T04:16:11;99675.00;;;-0.37;100.00
65897;BME280;52677;50.898;10.854;2023-05-03T04:18:12;99679.66;;;-0.38;100.00
65897;BME280;52677;50.898;10.854;2023-05-03T04:20:12;99678.31;;;-0.40;100.00
65897;BME280;52677;50.898;10.854;2023-05-03T04:22:13;99673.97;;;-0.41;100.00
65897;BME280;52677;50.898;10.854;2023-05-03T04:24:16;99684.56;;;-0.45;100.00
65897;BME280;52677;50.898;10.854;2023-05-03T04:26:16;99676.41;;;-0.50;100.00
65897;BME280;52677;50.898;10.854;2023-05-03T04:28:17;99687.84;;;-0.48;100.00
65897;BME280;52677;50.898;10.854;2023-05-03T04:30:17;99680.75;;;-0.44;100.00
65897;BME280;52677;50.898;10.854;2023-05-03T04:32:18;99690.25;;;-0.36;100.00
65897;BME280;52677;50.898;10.854;2023-05-03T04:34:22;99688.34;;;-0.36;100.00
65897;BME280;52677;50.898;10.854;2023-05-03T04:36:23;99686.41;;;-0.30;100.00
65897;BME280;52677;50.898;10.854;2023-05-03T04:38:25;99695.91;;;-0.28;100.00
65897;BME280;52677;50.898;10.854;2023-05-03T04:40:26;99695.91;;;-0.22;100.00
65897;BME280;52677;50.898;10.854;2023-05-03T04:42:26;99695.91;;;-0.22;100.00
65897;BME280;52677;50.898;10.854;2023-05-03T04:44:26;99691.81;;;-0.15;100.00
65897;BME280;52677;50.898;10.854;2023-05-03T04:46:27;99686.31;;;0.01;100.00
65897;BME280;52677;50.898;10.854;2023-05-03T04:48:28;99701.50;;;0.12;100.00
65897;BME280;52677;50.898;10.854;2023-05-03T04:50:28;99692.47;;;0.16;100.00
65897;BME280;52677;50.898;10.854;2023-05-03T04:52:28;99700.03;;;0.24;100.00
65897;BME280;52677;50.898;10.854;2023-05-03T04:54:28;99700.84;;;0.30;100.00
65897;BME280;52677;50.898;10.854;2023-05-03T04:56:29;99702.97;;;0.38;100.00
65897;BME280;52677;50.898;10.854;2023-05-03T04:58:30;99704.81;;;0.53;100.00
65897;BME280;52677;50.898;10.854;2023-05-03T05:00:30;99699.28;;;0.63;100.00
65897;BME280;52677;50.898;10.854;2023-05-03T05:02:30;99706.03;;;0.71;100.00
65897;BME280;52677;50.898;10.854;2023-05-03T05:04:31;99703.03;;;0.72;100.00
65897;BME280;52677;50.898;10.854;2023-05-03T05:06:31;99705.19;;;0.75;100.00
65897;BME280;52677;50.898;10.854;2023-05-03T05:08:32;99708.13;;;0.84;100.00
65897;BME280;52677;50.898;10.854;2023-05-03T05:10:36;99708.34;;;0.93;100.00
65897;BME280;52677;50.898;10.854;2023-05-03T05:12:37;99706.84;;;1.05;100.00
65897;BME280;52677;50.898;10.854;2023-05-03T05:14:37;99708.97;;;1.13;100.00
65897;BME280;52677;50.898;10.854;2023-05-03T05:16:37;99716.53;;;1.22;100.00
65897;BME280;52677;50.898;10.854;2023-05-03T05:18:38;99708.84;;;1.29;100.00
65897;BME280;52677;50.898;10.854;2023-05-03T05:20:38;99712.00;;;1.41;100.00
65897;BME280;52677;50.898;10.854;2023-05-03T05:22:38;99716.59;;;1.46;100.00
65897;BME280;52677;50.898;10.854;2023-05-03T05:24:39;99722.22;;;1.54;100.00
65897;BME280;52677;50.898;10.854;2023-05-03T05:26:40;99715.56;;;1.65;100.00
65897;BME280;52677;50.898;10.854;2023-05-03T05:28:41;99712.19;;;1.74;100.00
65897;BME280;52677;50.898;10.854;2023-05-03T05:30:41;99716.22;;;1.81;100.00
65897;BME280;52677;50.898;10.854;2023-05-03T05:32:42;99721.03;;;1.89;100.00
65897;BME280;52677;50.898;10.854;2023-05-03T05:34:42;99719.94;;;1.90;100.00
65897;BME280;52677;50.898;10.854;2023-05-03T05:36:44;99724.00;;;1.93;100.00
65897;BME280;52677;50.898;10.854;2023-05-03T05:38:44;99729.63;;;2.02;100.00
65897;BME280;52677;50.898;10.854;2023-05-03T05:40:45;99723.28;;;2.06;100.00
65897;BME280;52677;50.898;10.854;2023-05-03T05:42:45;99733.34;;;2.11;100.00
65897;BME280;52677;50.898;10.854;2023-05-03T05:44:47;99731.06;;;2.18;100.00
65897;BME280;52677;50.898;10.854;2023-05-03T05:46:48;99727.69;;;2.26;100.00
65897;BME280;52677;50.898;10.854;2023-05-03T05:48:48;99730.66;;;2.30;100.00
65897;BME280;52677;50.898;10.854;2023-05-03T05:50:50;99733.84;;;2.37;100.00
65897;BME280;52677;50.898;10.854;2023-05-03T05:52:51;99739.44;;;2.45;100.00
65897;BME280;52677;50.898;10.854;2023-05-03T05:54:54;99726.53;;;2.51;100.00
65897;BME280;52677;50.898;10.854;2023-05-03T05:56:54;99728.69;;;2.54;100.00
65897;BME280;52677;50.898;10.854;2023-05-03T05:58:55;99727.00;;;2.58;100.00
65897;BME280;52677;50.898;10.854;2023-05-03T06:00:59;99734.81;;;2.65;100.00
65897;BME280;52677;50.898;10.854;2023-05-03T06:03:00;99728.16;;;2.71;100.00
65897;BME280;52677;50.898;10.854;2023-05-03T06:05:00;99734.38;;;2.76;100.00
65897;BME280;52677;50.898;10.854;2023-05-03T06:07:01;99734.53;;;2.85;100.00
65897;BME280;52677;50.898;10.854;2023-05-03T06:09:01;99732.53;;;2.91;100.00
65897;BME280;52677;50.898;10.854;2023-05-03T06:11:02;99732.94;;;2.98;100.00
65897;BME280;52677;50.898;10.854;2023-05-03T06:13:02;99728.72;;;3.05;100.00
65897;BME280;52677;50.898;10.854;2023-05-03T06:15:03;99733.25;;;3.15;100.00
65897;BME280;52677;50.898;10.854;2023-05-03T06:17:04;99729.03;;;3.23;100.00
65897;BME280;52677;50.898;10.854;2023-05-03T06:19:04;99726.69;;;3.30;100.00
65897;BME280;52677;50.898;10.854;2023-05-03T06:21:05;99728.22;;;3.36;100.00
65897;BME280;52677;50.898;10.854;2023-05-03T06:23:05;99728.16;;;3.41;100.00
65897;BME280;52677;50.898;10.854;2023-05-03T06:25:05;99733.25;;;3.48;100.00
65897;BME280;52677;50.898;10.854;2023-05-03T06:27:09;99730.19;;;3.49;100.00
65897;BME280;52677;50.898;10.854;2023-05-03T06:29:09;99729.81;;;3.56;100.00
65897;BME280;52677;50.898;10.854;2023-05-03T06:31:10;99728.09;;;3.60;100.00
65897;BME280;52677;50.898;10.854;2023-05-03T06:33:11;99730.44;;;3.66;100.00
65897;BME280;52677;50.898;10.854;2023-05-03T06:35:13;99723.44;;;3.74;100.00
65897;BME280;52677;50.898;10.854;2023-05-03T06:37:15;99732.88;;;3.82;100.00
65897;BME280;52677;50.898;10.854;2023-05-03T06:39:15;99731.38;;;3.89;100.00
65897;BME280;52677;50.898;10.854;2023-05-03T06:41:16;99732.47;;;4.02;100.00
65897;BME280;52677;50.898;10.854;2023-05-03T06:43:16;99735.94;;;4.08;100.00
65897;BME280;52677;50.898;10.854;2023-05-03T06:45:17;99724.78;;;4.18;100.00
65897;BME280;52677;50.898;10.854;2023-05-03T06:47:17;99733.41;;;4.25;100.00
65897;BME280;52677;50.898;10.854;2023-05-03T06:49:19;99726.69;;;4.31;100.00
65897;BME280;52677;50.898;10.854;2023-05-03T06:51:22;99736.31;;;4.42;100.00
65897;BME280;52677;50.898;10.854;2023-05-03T06:53:26;99730.75;;;4.47;100.00
65897;BME280;52677;50.898;10.854;2023-05-03T06:55:27;99730.81;;;4.56;100.00
65897;BME280;52677;50.898;10.854;2023-05-03T06:57:28;99726.03;;;4.62;100.00
65897;BME280;52677;50.898;10.854;2023-05-03T06:59:28;99726.22;;;4.65;100.00
65897;BME280;52677;50.898;10.854;2023-05-03T07:01:29;99724.69;;;4.73;100.00
65897;BME280;52677;50.898;10.854;2023-05-03T07:03:30;99721.00;;;4.77;100.00
65897;BME280;52677;50.898;10.854;2023-05-03T07:05:30;99726.56;;;4.86;100.00
65897;BME280;52677;50.898;10.854;2023-05-03T07:07:31;99728.06;;;4.92;100.00
65897;BME280;52677;50.898;10.854;2023-05-03T07:09:32;99720.72;;;5.01;100.00
65897;BME280;52677;50.898;10.854;2023-05-03T07:11:33;99724.47;;;5.05;100.00
65897;BME280;52677;50.898;10.854;2023-05-03T07:13:36;99724.03;;;5.12;100.00
65897;BME280;52677;50.898;10.854;2023-05-03T07:15:36;99715.69;;;5.17;100.00
65897;BME280;52677;50.898;10.854;2023-05-03T07:17:36;99716.38;;;5.23;100.00
65897;BME280;52677;50.898;10.854;2023-05-03T07:19:37;99711.06;;;5.26;100.00
65897;BME280;52677;50.898;10.854;2023-05-03T07:21:37;99712.88;;;5.31;100.00
65897;BME280;52677;50.898;10.854;2023-05-03T07:23:38;99716.34;;;5.45;100.00
65897;BME280;52677;50.898;10.854;2023-05-03T07:25:39;99714.31;;;5.59;100.00
65897;BME280;52677;50.898;10.854;2023-05-03T07:27:40;99718.91;;;5.73;100.00
65897;BME280;52677;50.898;10.854;2023-05-03T07:29:41;99715.09;;;5.82;100.00
65897;BME280;52677;50.898;10.854;2023-05-03T07:31:41;99711.09;;;5.88;100.00
65897;BME280;52677;50.898;10.854;2023-05-03T07:33:43;99710.63;;;5.95;100.00
65897;BME280;52677;50.898;10.854;2023-05-03T07:35:47;99709.03;;;6.03;100.00
65897;BME280;52677;50.898;10.854;2023-05-03T07:37:48;99706.84;;;6.13;100.00
65897;BME280;52677;50.898;10.854;2023-05-03T07:39:48;99700.88;;;6.29;100.00
65897;BME280;52677;50.898;10.854;2023-05-03T07:41:48;99698.13;;;6.29;98.87
65897;BME280;52677;50.898;10.854;2023-05-03T07:43:49;99696.84;;;6.35;100.00
65897;BME280;52677;50.898;10.854;2023-05-03T07:45:49;99696.22;;;6.38;100.00
65897;BME280;52677;50.898;10.854;2023-05-03T07:47:49;99695.25;;;6.42;100.00
65897;BME280;52677;50.898;10.854;2023-05-03T07:49:50;99690.41;;;6.48;100.00
65897;BME280;52677;50.898;10.854;2023-05-03T07:51:50;99684.94;;;6.57;100.00
65897;BME280;52677;50.898;10.854;2023-05-03T07:53:51;99692.69;;;6.55;99.66
65897;BME280;52677;50.898;10.854;2023-05-03T07:55:52;99688.31;;;6.54;96.82
65897;BME280;52677;50.898;10.854;2023-05-03T07:57:53;99681.69;;;6.55;99.75
65897;BME280;52677;50.898;10.854;2023-05-03T07:59:58;99677.63;;;6.61;100.00
65897;BME280;52677;50.898;10.854;2023-05-03T08:01:58;99685.91;;;6.78;100.00
65897;BME280;52677;50.898;10.854;2023-05-03T08:03:59;99686.41;;;6.80;99.11
65897;BME280;52677;50.898;10.854;2023-05-03T08:05:59;99682.19;;;6.83;98.01
65897;BME280;52677;50.898;10.854;2023-05-03T08:08:00;99683.16;;;6.87;99.82
65897;BME280;52677;50.898;10.854;2023-05-03T08:10:00;99687.69;;;6.91;97.29
65897;BME280;52677;50.898;10.854;2023-05-03T08:12:01;99684.59;;;7.01;98.19
65897;BME280;52677;50.898;10.854;2023-05-03T08:14:02;99673.28;;;7.12;98.80
65897;BME280;52677;50.898;10.854;2023-05-03T08:16:03;99669.84;;;7.23;100.00
65897;BME280;52677;50.898;10.854;2023-05-03T08:18:04;99679.53;;;7.38;100.00
65897;BME280;52677;50.898;10.854;2023-05-03T08:20:05;99678.19;;;7.62;99.27
65897;BME280;52677;50.898;10.854;2023-05-03T08:22:07;99673.41;;;7.79;97.54
65897;BME280;52677;50.898;10.854;2023-05-03T08:24:10;99669.78;;;7.96;99.67
65897;BME280;52677;50.898;10.854;2023-05-03T08:26:10;99675.19;;;8.13;97.25
65897;BME280;52677;50.898;10.854;2023-05-03T08:28:13;99668.78;;;8.30;97.82
65897;BME280;52677;50.898;10.854;2023-05-03T08:30:13;99669.53;;;8.39;96.13
65897;BME280;52677;50.898;10.854;2023-05-03T08:32:14;99669.16;;;8.50;95.04
65897;BME280;52677;50.898;10.854;2023-05-03T08:34:14;99674.19;;;8.68;99.26
65897;BME280;52677;50.898;10.854;2023-05-03T08:36:14;99669.16;;;8.70;95.37
65897;BME280;52677;50.898;10.854;2023-05-03T08:38:15;99683.63;;;8.67;94.48
65897;BME280;52677;50.898;10.854;2023-05-03T08:40:15;99669.56;;;8.81;90.58
65897;BME280;52677;50.898;10.854;2023-05-03T08:42:15;99665.47;;;8.87;92.97
65897;BME280;52677;50.898;10.854;2023-05-03T08:44:20;99674.88;;;8.86;91.66
65897;BME280;52677;50.898;10.854;2023-05-03T08:46:23;99670.72;;;8.80;90.67
65897;BME280;52677;50.898;10.854;2023-05-03T08:48:25;99666.25;;;8.88;91.87
65897;BME280;52677;50.898;10.854;2023-05-03T08:50:26;99670.69;;;9.01;93.07
65897;BME280;52677;50.898;10.854;2023-05-03T08:52:26;99669.78;;;9.09;90.61
65897;BME280;52677;50.898;10.854;2023-05-03T08:54:27;99663.47;;;9.09;89.46
65897;BME280;52677;50.898;10.854;2023-05-03T08:56:43;99663.16;;;9.10;86.72
65897;BME280;52677;50.898;10.854;2023-05-03T08:58:44;99660.69;;;9.09;89.30
65897;BME280;52677;50.898;10.854;2023-05-03T09:00:44;99665.31;;;9.05;90.19
65897;BME280;52677;50.898;10.854;2023-05-03T09:02:45;99667.91;;;9.22;91.42
65897;BME280;52677;50.898;10.854;2023-05-03T09:04:46;99668.50;;;9.27;92.22
65897;BME280;52677;50.898;10.854;2023-05-03T09:06:46;99674.34;;;9.26;85.50
65897;BME280;52677;50.898;10.854;2023-05-03T09:08:46;99665.66;;;9.03;83.88
65897;BME280;52677;50.898;10.854;2023-05-03T09:10:47;99665.72;;;8.94;88.54
65897;BME280;52677;50.898;10.854;2023-05-03T09:12:47;99661.09;;;8.86;89.38
65897;BME280;52677;50.898;10.854;2023-05-03T09:14:48;99661.00;;;8.95;87.35
65897;BME280;52677;50.898;10.854;2023-05-03T09:16:49;99664.50;;;9.04;89.57
65897;BME280;52677;50.898;10.854;2023-05-03T09:19:00;99654.97;;;9.14;88.51
65897;BME280;52677;50.898;10.854;2023-05-03T09:21:01;99654.56;;;9.24;90.70
65897;BME280;52677;50.898;10.854;2023-05-03T09:23:01;99657.81;;;9.38;88.81
65897;BME280;52677;50.898;10.854;2023-05-03T09:25:02;99657.53;;;9.52;87.58
65897;BME280;52677;50.898;10.854;2023-05-03T09:27:16;99656.94;;;9.58;84.91
65897;BME280;52677;50.898;10.854;2023-05-03T09:29:28;99649.44;;;9.59;83.99
65897;BME280;52677;50.898;10.854;2023-05-03T09:31:30;99655.06;;;9.50;83.84
65897;BME280;52677;50.898;10.854;2023-05-03T09:33:31;99659.69;;;9.46;83.35
65897;BME280;52677;50.898;10.854;2023-05-03T09:35:31;99652.41;;;9.42;82.70
65897;BME280;52677;50.898;10.854;2023-05-03T09:37:35;99665.31;;;9.50;83.08
65897;BME280;52677;50.898;10.854;2023-05-03T09:39:37;99658.78;;;9.54;85.21
65897;BME280;52677;50.898;10.854;2023-05-03T09:41:37;99661.91;;;9.65;85.36
65897;BME280;52677;50.898;10.854;2023-05-03T09:43:48;99661.69;;;9.70;86.08
65897;BME280;52677;50.898;10.854;2023-05-03T09:45:49;99652.34;;;9.63;81.95
65897;BME280;52677;50.898;10.854;2023-05-03T09:47:49;99656.91;;;9.46;82.35
65897;BME280;52677;50.898;10.854;2023-05-03T09:49:51;99653.25;;;9.54;83.72
65897;BME280;52677;50.898;10.854;2023-05-03T09:51:51;99654.41;;;9.53;84.88
65897;BME280;52677;50.898;10.854;2023-05-03T09:53:53;99657.97;;;9.54;82.77
65897;BME280;52677;50.898;10.854;2023-05-03T09:55:55;99658.63;;;9.51;83.26
65897;BME280;52677;50.898;10.854;2023-05-03T09:57:56;99651.41;;;9.46;81.82
65897;BME280;52677;50.898;10.854;2023-05-03T09:59:56;99646.31;;;9.48;84.46
65897;BME280;52677;50.898;10.854;2023-05-03T10:02:00;99646.44;;;9.40;81.92
65897;BME280;52677;50.898;10.854;2023-05-03T10:04:02;99649.94;;;9.61;86.61
65897;BME280;52677;50.898;10.854;2023-05-03T10:06:05;99650.03;;;9.65;80.52
65897;BME280;52677;50.898;10.854;2023-05-03T10:08:56;99650.50;;;9.67;75.89
65897;BME280;52677;50.898;10.854;2023-05-03T10:10:38;99640.50;;;9.74;80.42
65897;BME280;52677;50.898;10.854;2023-05-03T10:12:43;99643.72;;;9.89;82.50
65897;BME280;52677;50.898;10.854;2023-05-03T10:14:46;99646.16;;;9.90;81.49
65897;BME280;52677;50.898;10.854;2023-05-03T10:16:58;99637.25;;;10.09;81.14
65897;BME280;52677;50.898;10.854;2023-05-03T10:19:14;99634.84;;;10.20;79.70
65897;BME280;52677;50.898;10.854;2023-05-03T10:21:23;99627.13;;;10.25;78.34
65897;BME280;52677;50.898;10.854;2023-05-03T10:23:25;99624.06;;;10.27;85.42
65897;BME280;52677;50.898;10.854;2023-05-03T10:25:25;99630.25;;;10.36;79.91
65897;BME280;52677;50.898;10.854;2023-05-03T10:29:44;99625.19;;;10.26;77.40
65897;BME280;52677;50.898;10.854;2023-05-03T10:31:47;99622.75;;;10.12;79.37
65897;BME280;52677;50.898;10.854;2023-05-03T10:33:47;99632.66;;;10.25;81.01
65897;BME280;52677;50.898;10.854;2023-05-03T10:35:51;99629.69;;;10.30;78.85
65897;BME280;52677;50.898;10.854;2023-05-03T10:37:51;99622.41;;;10.26;78.05
65897;BME280;52677;50.898;10.854;2023-05-03T10:39:53;99629.78;;;10.22;77.41
65897;BME280;52677;50.898;10.854;2023-05-03T10:44:02;99631.06;;;10.36;77.49
65897;BME280;52677;50.898;10.854;2023-05-03T10:54:35;99625.47;;;10.61;77.56